Time;durP1;ratioP1;P1;durP2;ratioP2;P2;SDS_P1;SDS_P2;PMS_P1;PMS_P2;Temp;Humidity;BMP_temperature;BMP_pressure;BME280_temperature;BME280_humidity;BME280_pressure;Samples;Min_cycle;Max_cycle;Signal;HPM_P1;HPM_P2
2021/10/07 00:01:56;;;;;;;22.98;16.35;;;;;;;14.66;68.33;100419.72;6097101;23;20391;-80
2021/10/07 00:04:23;;;;;;;21.50;16.83;;;;;;;14.66;68.49;100423.22;6096182;23;20033;-80
2021/10/07 00:06:52;;;;;;;21.20;17.05;;;;;;;14.65;68.46;100412.75;6096931;23;20022;-80
2021/10/07 00:09:19;;;;;;;20.08;16.25;;;;;;;14.67;68.51;100430.25;6096499;23;20110;-80
2021/10/07 00:11:46;;;;;;;22.92;15.38;;;;;;;14.67;68.34;100432.88;6096581;23;20029;-80
2021/10/07 00:14:22;;;;;;;18.63;15.60;;;;;;;14.64;68.78;100438.38;6096235;23;20023;-80
2021/10/07 00:16:49;;;;;;;19.38;16.05;;;;;;;14.68;68.48;100447.84;6096793;23;20026;-80
2021/10/07 00:19:16;;;;;;;20.95;17.02;;;;;;;14.69;68.48;100457.47;6096818;23;20023;-80
2021/10/07 00:21:43;;;;;;;17.63;14.63;;;;;;;14.70;68.37;100455.69;6097046;23;20026;-80
2021/10/07 00:24:11;;;;;;;16.67;14.30;;;;;;;14.69;68.50;100457.47;6096616;23;20033;-80
2021/10/07 00:26:39;;;;;;;21.60;16.55;;;;;;;14.69;68.30;100452.16;6096446;23;20105;-80
2021/10/07 00:31:49;;;;;;;19.92;16.52;;;;;;;14.70;68.38;100459.16;6098103;23;20316;-80
2021/10/07 00:34:25;;;;;;;24.70;14.73;;;;;;;14.71;68.31;100455.59;6096231;23;20105;-80
2021/10/07 00:37:09;;;;;;;23.20;16.70;;;;;;;14.70;68.38;100461.81;6096799;23;20353;-80
2021/10/07 00:39:35;;;;;;;21.05;16.98;;;;;;;14.71;68.41;100468.84;6096649;23;20430;-80
2021/10/07 00:42:02;;;;;;;21.83;16.33;;;;;;;14.71;68.38;100471.50;6096545;23;20125;-80
2021/10/07 00:44:48;;;;;;;26.20;18.02;;;;;;;14.67;68.68;100475.28;6096326;23;20022;-80
2021/10/07 00:47:17;;;;;;;23.77;17.40;;;;;;;14.71;68.32;100476.78;6096113;23;20029;-80
2021/10/07 00:49:44;;;;;;;23.42;18.27;;;;;;;14.71;68.27;100482.09;6096079;23;20026;-80
2021/10/07 00:52:14;;;;;;;22.27;17.42;;;;;;;14.70;68.40;100480.38;6096454;23;20034;-80
2021/10/07 00:54:41;;;;;;;22.50;18.58;;;;;;;14.70;68.37;100488.31;6095938;23;20101;-80
2021/10/07 00:57:18;;;;;;;20.80;16.05;;;;;;;14.68;68.75;100489.38;6096107;23;20101;-80
2021/10/07 00:59:46;;;;;;;21.95;17.10;;;;;;;14.71;68.24;100492.69;6096862;23;20120;-80
2021/10/07 01:02:16;;;;;;;25.23;15.90;;;;;;;14.70;68.33;100490.97;6096486;23;20062;-80
2021/10/07 01:04:45;;;;;;;25.30;16.42;;;;;;;14.71;68.23;100491.84;6096046;23;20101;-80
2021/10/07 01:07:12;;;;;;;22.92;16.98;;;;;;;14.70;68.17;100493.63;6096439;23;20069;-80
2021/10/07 01:10:16;;;;;;;23.35;16.27;;;;;;;14.66;68.65;100508.00;6096115;23;20044;-80
2021/10/07 01:12:43;;;;;;;;;;;;;;;14.70;68.46;100506.88;6096835;23;20023;-80
2021/10/07 01:15:14;;;;;;;24.80;15.98;;;;;;;14.73;67.95;100504.03;6096149;23;19923;-80
2021/10/07 01:17:41;;;;;;;30.77;19.00;;;;;;;14.71;67.96;100508.59;6096465;23;20093;-80
2021/10/07 01:20:08;;;;;;;27.42;17.15;;;;;;;14.68;68.00;100506.13;6095934;23;20058;-80
2021/10/07 01:22:35;;;;;;;36.40;20.30;;;;;;;14.68;68.12;100510.56;6096356;23;20097;-80
2021/10/07 01:25:15;;;;;;;31.35;19.40;;;;;;;14.63;68.51;100520.59;6095752;23;20022;-80
2021/10/07 01:27:41;;;;;;;30.55;19.20;;;;;;;14.66;68.30;100504.53;6095898;23;20034;-80
2021/10/07 01:30:11;;;;;;;30.33;19.58;;;;;;;14.64;68.36;100506.41;6095842;23;20022;-80
2021/10/07 01:33:03;;;;;;;30.27;20.08;;;;;;;14.59;68.84;100504.88;6096321;23;20058;-80
2021/10/07 01:35:49;;;;;;;22.83;15.95;;;;;;;14.62;68.75;100508.31;6095607;23;20098;-80
2021/10/07 01:38:16;;;;;;;25.13;16.77;;;;;;;14.64;68.29;100509.91;6096189;23;20518;-80
2021/10/07 01:40:42;;;;;;;21.30;14.35;;;;;;;14.63;68.24;100505.56;6095800;23;20023;-80
2021/10/07 01:43:14;;;;;;;21.58;15.38;;;;;;;14.62;68.47;100514.47;6095865;23;20029;-80
2021/10/07 01:45:40;;;;;;;20.33;15.32;;;;;;;14.62;68.19;100514.47;6096078;23;20023;-80
2021/10/07 01:48:07;;;;;;;22.40;15.65;;;;;;;14.62;68.22;100519.78;6095779;23;20081;-80
2021/10/07 01:50:36;;;;;;;20.08;15.40;;;;;;;14.60;68.40;100524.28;6095959;23;20442;-80
2021/10/07 01:53:03;;;;;;;22.35;15.10;;;;;;;14.61;68.31;100526.00;6096223;23;20522;-80
2021/10/07 01:55:53;;;;;;;22.88;14.82;;;;;;;14.56;68.85;100528.06;6095989;23;20031;-80
2021/10/07 01:58:20;;;;;;;17.70;12.82;;;;;;;14.61;68.33;100527.81;6095854;23;20097;-80
2021/10/07 02:00:47;;;;;;;26.13;15.50;;;;;;;14.59;68.20;100528.72;6096355;23;20019;-80
2021/10/07 02:06:36;;;;;;;19.58;14.63;;;;;;;14.58;68.05;100532.34;6097360;23;20398;-80
2021/10/07 02:09:06;;;;;;;20.70;14.40;;;;;;;14.55;68.30;100535.16;6095654;23;20029;-80
2021/10/07 02:11:47;;;;;;;19.90;14.32;;;;;;;14.52;68.65;100539.81;6095740;23;20097;-80
2021/10/07 02:14:14;;;;;;;20.92;14.27;;;;;;;14.54;67.95;100546.72;6095587;23;20027;-80
2021/10/07 02:16:40;;;;;;;19.42;14.45;;;;;;;14.53;68.08;100544.16;6096142;23;20349;-80
2021/10/07 02:19:07;;;;;;;21.08;14.55;;;;;;;14.52;68.16;100547.75;6096153;23;20061;-80
2021/10/07 02:21:34;;;;;;;17.23;13.10;;;;;;;14.50;67.93;100547.84;6095659;23;20018;-80
2021/10/07 02:24:22;;;;;;;17.45;12.55;;;;;;;14.44;68.42;100548.22;6095594;23;20061;-80
2021/10/07 02:26:49;;;;;;;17.10;13.38;;;;;;;14.47;67.81;100550.69;6096816;23;20368;-80
2021/10/07 02:29:16;;;;;;;17.80;13.05;;;;;;;14.44;67.70;100557.00;6097400;23;20028;-80
2021/10/07 02:31:52;;;;;;;22.38;12.93;;;;;;;14.38;68.14;100560.03;6097406;23;20093;-80
2021/10/07 02:34:19;;;;;;;15.88;12.48;;;;;;;14.38;67.61;100554.75;6097231;23;20022;-80
2021/10/07 02:36:47;;;;;;;18.02;12.45;;;;;;;14.33;67.53;100562.94;6097105;23;20028;-80
2021/10/07 02:39:15;;;;;;;21.58;13.63;;;;;;;14.31;67.41;100558.69;6097071;23;20343;-80
2021/10/07 02:42:22;;;;;;;21.17;15.18;;;;;;;14.20;67.78;100561.97;6097677;23;20382;-80
2021/10/07 02:44:48;;;;;;;20.60;13.07;;;;;;;14.19;67.21;100562.94;6097414;23;20022;-80
2021/10/07 02:47:15;;;;;;;17.10;12.25;;;;;;;14.12;67.42;100557.16;6097376;23;20029;-80
2021/10/07 02:49:42;;;;;;;51.03;13.85;;;;;;;14.06;67.39;100563.66;6097316;23;20105;-80
2021/10/07 02:52:12;;;;;;;91.13;12.10;;;;;;;14.00;67.55;100568.47;6098634;23;20025;-80
2021/10/07 02:54:38;;;;;;;32.70;11.40;;;;;;;13.97;67.52;100563.38;6097502;23;20029;-80
2021/10/07 02:57:20;;;;;;;43.95;10.27;;;;;;;13.87;68.02;100571.81;6097509;23;20022;-80
2021/10/07 02:59:47;;;;;;;44.53;10.10;;;;;;;13.88;67.70;100585.91;6097293;23;20028;-80
2021/10/07 03:02:20;;;;;;;46.83;8.63;;;;;;;13.82;68.22;100584.47;6097171;23;20022;-80
2021/10/07 03:04:49;;;;;;;;;;;;;;;13.80;68.06;100586.38;6097423;23;20037;-80
2021/10/07 03:07:16;;;;;;;42.05;8.38;;;;;;;13.81;67.59;100582.75;6097011;23;19924;-80
2021/10/07 03:09:42;;;;;;;37.70;7.57;;;;;;;13.76;67.70;100590.97;6096989;23;20058;-80
2021/10/07 03:12:09;;;;;;;79.40;9.32;;;;;;;13.73;67.85;100590.28;6096794;23;20029;-80
2021/10/07 03:14:39;;;;;;;43.90;10.57;;;;;;;13.68;68.15;100591.41;6097210;23;20409;-80
2021/10/07 03:17:07;;;;;;;9.95;7.28;;;;;;;13.65;68.05;100588.91;6097083;23;20058;-80
2021/10/07 03:19:34;;;;;;;21.85;8.55;;;;;;;13.64;68.23;100597.81;6096881;23;20105;-80
2021/10/07 03:22:00;;;;;;;33.75;9.05;;;;;;;13.61;68.00;100595.31;6097037;23;20068;-80
2021/10/07 03:24:27;;;;;;;33.22;8.60;;;;;;;13.61;68.14;100605.06;6096763;23;20029;-80
2021/10/07 03:26:54;;;;;;;30.38;7.93;;;;;;;13.58;68.03;100608.75;6098451;23;20022;-80
2021/10/07 03:29:36;;;;;;;42.63;8.77;;;;;;;13.50;68.59;100609.16;6097310;23;20357;-80
2021/10/07 03:32:03;;;;;;;21.70;7.30;;;;;;;13.53;67.76;100618.75;6097496;23;20343;-80
2021/10/07 03:34:33;;;;;;;19.38;7.93;;;;;;;13.48;67.78;100623.41;6096742;23;20023;-80
2021/10/07 03:37:00;;;;;;;27.85;8.18;;;;;;;13.45;67.74;100624.41;6097175;23;20480;-80
2021/10/07 03:39:26;;;;;;;15.07;6.68;;;;;;;13.40;67.34;100631.75;6096744;23;20093;-80
2021/10/07 03:41:57;;;;;;;18.33;6.88;;;;;;;13.33;67.55;100636.50;6096824;23;20052;-80
2021/10/07 03:44:24;;;;;;;26.88;7.93;;;;;;;13.29;67.24;100630.53;6097014;23;20491;-80
2021/10/07 03:46:51;;;;;;;19.77;7.97;;;;;;;13.24;67.08;100637.00;6097217;23;20031;-80
2021/10/07 03:49:17;;;;;;;24.55;7.65;;;;;;;13.18;66.90;100647.91;6097029;23;20470;-80
2021/10/07 03:52:12;;;;;;;23.13;7.07;;;;;;;13.06;67.34;100649.41;6096889;23;20392;-80
2021/10/07 03:54:57;;;;;;;13.73;6.38;;;;;;;12.98;67.35;100655.94;6097162;23;20330;-80
2021/10/07 03:57:26;;;;;;;15.57;6.70;;;;;;;12.96;67.34;100665.75;6098882;23;20022;-80
2021/10/07 03:59:53;;;;;;;18.27;7.43;;;;;;;12.92;67.56;100666.00;6096622;23;20030;-80
2021/10/07 04:02:37;;;;;;;32.13;8.23;;;;;;;12.83;68.35;100670.84;6096875;23;20018;-80
2021/10/07 04:05:04;;;;;;;22.67;7.75;;;;;;;12.85;68.18;100674.25;6096524;23;20026;-80
2021/10/07 04:07:31;;;;;;;36.55;8.45;;;;;;;12.84;68.34;100677.84;6096905;23;20022;-80
2021/10/07 04:09:58;;;;;;;66.68;8.63;;;;;;;12.84;68.47;100674.31;6096887;23;20418;-80
2021/10/07 04:12:26;;;;;;;49.08;8.20;;;;;;;12.85;68.53;100679.53;6097114;23;20026;-80
2021/10/07 04:14:57;;;;;;;28.27;8.43;;;;;;;12.84;68.94;100687.53;6096679;23;20473;-80
2021/10/07 04:17:23;;;;;;;47.60;8.65;;;;;;;12.86;68.89;100691.81;6096612;23;20029;-80
2021/10/07 04:19:50;;;;;;;74.35;9.82;;;;;;;12.89;68.82;100696.94;6096672;23;20397;-80
2021/10/07 04:22:23;;;;;;;52.97;8.25;;;;;;;12.89;69.38;100696.94;6096685;23;20025;-80
2021/10/07 04:24:50;;;;;;;63.15;9.57;;;;;;;12.95;69.02;100700.19;6096228;23;20028;-80
2021/10/07 04:27:17;;;;;;;93.57;12.35;;;;;;;12.96;69.10;100705.41;6096661;23;20022;-80
2021/10/07 04:29:44;;;;;;;39.42;9.27;;;;;;;12.98;68.91;100710.63;6096665;23;20022;-80
2021/10/07 04:32:19;;;;;;;93.75;10.98;;;;;;;12.97;69.34;100706.28;6097553;23;20028;-80
2021/10/07 04:35:01;;;;;;;68.82;9.68;;;;;;;12.97;69.38;100715.03;6096416;23;20518;-80
2021/10/07 04:37:28;;;;;;;69.90;8.48;;;;;;;13.02;68.87;100717.44;6096264;23;20095;-80
2021/10/07 04:39:55;;;;;;;37.55;8.38;;;;;;;13.04;68.99;100720.84;6096156;23;20022;-80
2021/10/07 04:42:23;;;;;;;72.75;8.38;;;;;;;13.03;69.00;100725.31;6096195;23;20031;-80
2021/10/07 04:44:49;;;;;;;47.28;9.88;;;;;;;13.05;68.77;100722.59;6096371;23;20030;-80
2021/10/07 04:47:29;;;;;;;46.13;7.82;;;;;;;13.02;69.27;100725.38;6096389;23;20029;-79
2021/10/07 04:49:56;;;;;;;39.80;8.50;;;;;;;13.05;68.74;100732.28;6096002;23;20022;-80
2021/10/07 04:52:31;;;;;;;70.18;8.60;;;;;;;13.02;69.03;100738.59;6095792;23;20026;-80
2021/10/07 04:54:57;;;;;;;40.70;7.65;;;;;;;13.05;68.71;100738.44;6095816;23;20037;-80
2021/10/07 04:57:25;;;;;;;33.33;8.13;;;;;;;13.06;68.57;100736.63;6096321;23;20446;-80
2021/10/07 04:59:51;;;;;;;43.72;9.13;;;;;;;13.06;68.51;100732.22;6096568;23;20093;-80
2021/10/07 05:02:28;;;;;;;21.25;7.80;;;;;;;13.02;69.13;100744.72;6097591;23;20093;-80
2021/10/07 05:04:55;;;;;;;32.75;6.65;;;;;;;13.07;68.71;100751.56;6095820;23;20078;-80
2021/10/07 05:07:22;;;;;;;44.00;7.50;;;;;;;13.07;68.47;100749.78;6096281;23;20101;-80
2021/10/07 05:09:49;;;;;;;17.65;6.80;;;;;;;13.06;68.37;100757.78;6096091;23;20097;-80
2021/10/07 05:12:15;;;;;;;26.08;7.28;;;;;;;13.05;68.25;100754.31;6095892;23;20028;-80
2021/10/07 05:14:48;;;;;;;43.42;7.57;;;;;;;13.01;68.44;100760.69;6095764;23;20022;-81
2021/10/07 05:17:26;;;;;;;20.45;6.82;;;;;;;13.00;68.48;100766.88;6096208;23;20480;-80
2021/10/07 05:19:52;;;;;;;46.95;7.22;;;;;;;13.03;68.24;100758.81;6096026;23;20023;-80
2021/10/07 05:22:19;;;;;;;22.40;7.40;;;;;;;13.01;68.16;100768.63;6096408;23;20097;-79
2021/10/07 05:24:56;;;;;;;32.35;7.80;;;;;;;12.95;68.23;100771.53;6095821;23;20037;-80
2021/10/07 05:27:23;;;;;;;45.97;6.38;;;;;;;12.98;68.02;100779.34;6097034;23;20101;-80
2021/10/07 05:29:50;;;;;;;26.50;6.85;;;;;;;12.98;67.92;100787.25;6095904;23;20022;-80
2021/10/07 05:32:27;;;;;;;26.15;7.43;;;;;;;12.93;68.50;100791.94;6095750;23;20024;-80
2021/10/07 05:35:09;;;;;;;17.70;7.03;;;;;;;12.92;68.81;100795.47;6095954;23;20026;-80
2021/10/07 05:37:36;;;;;;;29.02;7.80;;;;;;;12.95;68.43;100790.91;6095927;23;20101;-80
2021/10/07 05:40:05;;;;;;;27.58;8.43;;;;;;;12.93;68.60;100802.50;6096515;23;20525;-80
2021/10/07 05:42:32;;;;;;;16.90;7.78;;;;;;;12.93;68.55;100797.22;6095960;23;20018;-80
2021/10/07 05:45:10;;;;;;;27.52;7.78;;;;;;;12.89;69.05;100805.28;6095788;23;20029;-80
2021/10/07 05:47:41;;;;;;;14.68;6.95;;;;;;;12.91;68.77;100807.84;6095922;23;20097;-80
2021/10/07 05:50:47;;;;;;;28.17;7.50;;;;;;;12.90;69.14;100808.78;6096026;23;20023;-80
2021/10/07 05:53:14;;;;;;;13.23;6.70;;;;;;;12.96;68.60;100808.47;6096392;23;20093;-81
2021/10/07 05:55:51;;;;;;;20.75;7.60;;;;;;;12.93;68.96;100813.91;6095948;23;20022;-81
2021/10/07 05:58:18;;;;;;;13.88;7.80;;;;;;;12.98;68.55;100811.03;6095783;23;20029;-81
2021/10/07 06:00:44;;;;;;;15.70;7.80;;;;;;;12.98;68.83;100814.53;6095681;23;20023;-81
2021/10/07 06:03:14;;;;;;;15.27;8.02;;;;;;;12.99;68.89;100820.69;6098491;23;20026;-81
2021/10/07 06:05:41;;;;;;;20.08;8.05;;;;;;;13.01;68.90;100822.31;6097907;23;20494;-81
2021/10/07 06:08:08;;;;;;;17.20;7.82;;;;;;;13.02;68.94;100834.59;6097580;23;20026;-81
2021/10/07 06:10:34;;;;;;;18.42;7.53;;;;;;;13.04;68.87;100837.16;6097531;23;20101;-81
2021/10/07 06:13:06;;;;;;;35.90;8.65;;;;;;;13.04;69.10;100845.09;6097505;23;20023;-81
2021/10/07 06:15:33;;;;;;;16.85;7.80;;;;;;;13.08;68.72;100848.44;6097875;23;20529;-81
2021/10/07 06:18:08;;;;;;;43.55;9.05;;;;;;;13.05;68.97;100849.47;6097917;23;20503;-81
2021/10/07 06:20:35;;;;;;;25.38;8.52;;;;;;;13.08;68.84;100849.28;6098717;23;20074;-81
2021/10/07 06:23:08;;;;;;;25.52;9.45;;;;;;;13.07;68.97;100855.50;6098593;23;20482;-81
2021/10/07 06:25:37;;;;;;;48.00;8.95;;;;;;;13.09;68.87;100844.88;6096961;23;20342;-81
2021/10/07 06:28:29;;;;;;;49.97;10.15;;;;;;;13.07;69.17;100854.66;6097965;23;20354;-81
2021/10/07 06:30:56;;;;;;;30.17;8.25;;;;;;;13.10;69.05;100850.09;6097915;23;20101;-81
2021/10/07 06:33:54;;;;;;;48.80;8.07;;;;;;;13.08;69.53;100857.22;6097938;23;20022;-81
2021/10/07 06:36:24;;;;;;;28.88;7.35;;;;;;;13.12;69.18;100856.13;6100796;23;20030;-81
2021/10/07 06:38:51;;;;;;;70.28;10.05;;;;;;;13.15;69.08;100858.63;6098153;23;20054;-81
2021/10/07 06:41:29;;;;;;;66.05;8.88;;;;;;;13.14;69.75;100864.84;6098003;23;20022;-81
2021/10/07 06:43:56;;;;;;;70.63;9.90;;;;;;;13.21;69.25;100861.91;6097225;23;20029;-81
2021/10/07 06:46:45;;;;;;;64.22;8.63;;;;;;;13.20;69.65;100870.75;6097244;23;20102;-81
2021/10/07 06:49:12;;;;;;;51.00;7.28;;;;;;;13.28;69.28;100866.78;6097837;23;20113;-81
2021/10/07 06:52:21;;;;;;;69.55;9.25;;;;;;;13.27;69.75;100874.81;6099042;23;20101;-81
2021/10/07 06:54:48;;;;;;;70.97;8.48;;;;;;;13.36;69.10;100877.00;6097049;23;20110;-81
2021/10/07 06:57:30;;;;;;;32.42;8.40;;;;;;;13.34;69.87;100886.78;6097350;23;20026;-81
2021/10/07 06:59:57;;;;;;;24.05;8.57;;;;;;;13.41;69.25;100882.91;6097672;23;20501;-81
2021/10/07 07:02:23;;;;;;;42.58;8.52;;;;;;;13.45;69.23;100880.09;6097587;23;20361;-81
2021/10/07 07:04:50;;;;;;;75.07;9.50;;;;;;;13.47;69.40;100889.66;6097352;23;20093;-81
2021/10/07 07:07:42;;;;;;;31.58;8.75;;;;;;;13.47;69.67;100888.81;6097316;23;20115;-81
2021/10/07 07:10:17;;;;;;;16.60;7.38;;;;;;;13.56;69.35;100901.59;6097873;23;20022;-80
2021/10/07 07:13:05;;;;;;;22.38;9.45;;;;;;;13.60;69.51;100903.16;6097267;23;20020;-81
2021/10/07 07:15:32;;;;;;;29.42;8.40;;;;;;;13.65;69.36;100903.75;6097293;23;20405;-81
2021/10/07 07:18:14;;;;;;;26.20;9.77;;;;;;;13.66;69.36;100905.50;6097495;23;20090;-81
2021/10/07 07:20:42;;;;;;;11.68;9.05;;;;;;;13.76;69.45;100907.66;6097355;23;20118;-81
2021/10/07 07:26:20;;;;;;;11.38;8.95;;;;;;;13.87;69.65;100913.22;6098691;23;20103;-81
2021/10/07 07:28:47;;;;;;;12.13;9.85;;;;;;;13.92;69.58;100913.88;6096985;23;20029;-81
2021/10/07 07:31:54;;;;;;;11.93;9.38;;;;;;;13.93;69.97;100912.91;6097270;23;20026;-81
2021/10/07 07:34:21;;;;;;;11.35;8.73;;;;;;;14.05;69.46;100915.84;6096700;23;20057;-81
2021/10/07 07:36:49;;;;;;;12.25;9.70;;;;;;;14.09;69.77;100914.75;6096759;23;20101;-81
2021/10/07 07:39:16;;;;;;;12.38;9.80;;;;;;;14.16;69.68;100916.13;6097334;23;20027;-81
2021/10/07 07:41:43;;;;;;;12.05;9.73;;;;;;;14.22;69.68;100914.94;6097044;23;20349;-81
2021/10/07 07:44:18;;;;;;;12.88;10.15;;;;;;;14.25;69.78;100919.22;6097139;23;20089;-81
2021/10/07 07:46:45;;;;;;;12.75;10.25;;;;;;;14.33;69.54;100923.16;6096913;23;20110;-81
2021/10/07 07:49:18;;;;;;;15.20;11.25;;;;;;;14.37;69.49;100934.47;6096794;23;20097;-81
2021/10/07 07:51:45;;;;;;;;;;;;;;;14.42;69.58;100937.72;6097699;23;20430;-81
2021/10/07 07:54:12;;;;;;;14.20;11.25;;;;;;;14.53;68.76;100944.19;6096549;23;19960;-81
2021/10/07 07:56:41;;;;;;;22.27;12.40;;;;;;;14.54;68.70;100941.47;6096600;23;20023;-81
2021/10/07 07:59:09;;;;;;;15.70;12.45;;;;;;;14.57;68.70;100943.97;6096924;23;20490;-81
2021/10/07 08:01:36;;;;;;;17.35;12.85;;;;;;;14.60;68.89;100948.25;6096905;23;20089;-81
2021/10/07 08:04:06;;;;;;;18.02;13.68;;;;;;;14.61;68.87;100947.28;6096449;23;20074;-81
2021/10/07 08:06:34;;;;;;;13.75;11.48;;;;;;;14.65;68.87;100948.84;6096918;23;20097;-81
2021/10/07 08:12:41;;;;;;;14.50;11.43;;;;;;;14.73;68.55;100941.31;6097912;23;20021;-81
2021/10/07 08:15:39;;;;;;;16.88;12.02;;;;;;;14.70;68.90;100941.47;6096403;23;20109;-81
2021/10/07 08:18:06;;;;;;;16.48;12.52;;;;;;;14.79;68.92;100950.75;6096403;23;20027;-81
2021/10/07 08:20:33;;;;;;;19.10;13.13;;;;;;;14.82;69.06;100945.28;6096810;23;20097;-81
2021/10/07 08:23:29;;;;;;;17.60;13.77;;;;;;;14.84;69.10;100950.50;6096818;23;20046;-80
2021/10/07 08:25:57;;;;;;;18.67;13.75;;;;;;;14.94;68.96;100959.66;6096060;23;20105;-81
2021/10/07 08:28:24;;;;;;;18.10;14.65;;;;;;;15.00;68.88;100960.25;6096760;23;20350;-81
2021/10/07 08:30:53;;;;;;;18.55;13.52;;;;;;;15.03;68.87;100957.44;6096354;23;20026;-81
2021/10/07 08:33:19;;;;;;;25.08;13.93;;;;;;;15.08;68.67;100958.88;6096270;23;20053;-81
2021/10/07 08:36:18;;;;;;;24.45;13.77;;;;;;;15.09;68.55;100959.72;6097723;23;20399;-81
2021/10/07 08:38:54;;;;;;;31.25;13.52;;;;;;;15.15;68.16;100958.53;6096146;23;20109;-81
2021/10/07 08:41:21;;;;;;;16.63;12.52;;;;;;;15.21;68.24;100961.69;6096509;23;20030;-81
2021/10/07 08:44:03;;;;;;;15.80;12.55;;;;;;;15.21;68.02;100966.97;6096193;23;20053;-81
2021/10/07 08:46:30;;;;;;;15.60;12.17;;;;;;;15.28;68.18;100956.88;6098139;23;20346;-81
2021/10/07 08:48:59;;;;;;;14.57;11.85;;;;;;;15.31;68.15;100956.69;6096230;23;20030;-81
2021/10/07 08:51:37;;;;;;;13.35;11.07;;;;;;;15.32;68.01;100968.16;6096529;23;20327;-81
2021/10/07 08:54:04;;;;;;;15.57;11.95;;;;;;;15.38;68.36;100962.50;6096454;23;20022;-81
2021/10/07 08:56:34;;;;;;;16.98;12.45;;;;;;;15.43;68.30;100968.38;6096547;23;20065;-81
2021/10/07 08:59:02;;;;;;;15.27;12.48;;;;;;;15.50;67.98;100979.50;6096603;23;20026;-81
2021/10/07 09:02:01;;;;;;;14.60;12.55;;;;;;;15.51;67.83;100983.84;6096239;23;20101;-81
2021/10/07 09:04:31;;;;;;;14.05;11.98;;;;;;;15.60;67.79;100983.34;6095981;23;20022;-81
2021/10/07 09:07:09;;;;;;;14.50;12.65;;;;;;;15.64;67.44;100976.03;6096054;23;20022;-81
2021/10/07 09:09:38;;;;;;;14.27;12.45;;;;;;;15.69;67.48;100976.63;6096038;23;20126;-81
2021/10/07 09:12:20;;;;;;;15.65;12.73;;;;;;;15.69;67.21;100971.31;6096199;23;20026;-81
2021/10/07 09:14:48;;;;;;;17.25;13.90;;;;;;;15.76;67.59;100967.38;6095812;23;20022;-81
2021/10/07 09:17:33;;;;;;;16.42;13.73;;;;;;;15.76;67.46;100970.00;6096263;23;20026;-81
2021/10/07 09:20:00;;;;;;;14.25;12.02;;;;;;;15.86;67.72;100970.28;6096074;23;20022;-81
2021/10/07 09:22:48;;;;;;;16.42;14.02;;;;;;;15.89;67.32;100977.25;6096267;23;20018;-81
2021/10/07 09:25:14;;;;;;;17.17;14.77;;;;;;;16.00;67.56;100974.81;6095852;23;20294;-81
2021/10/07 09:27:41;;;;;;;16.48;13.68;;;;;;;16.07;67.43;100974.47;6096141;23;20030;-81
2021/10/07 09:30:27;;;;;;;15.10;13.00;;;;;;;16.10;66.78;100980.44;6096375;23;20105;-81
2021/10/07 09:33:00;;;;;;;16.20;13.23;;;;;;;16.19;66.41;100989.66;6095857;23;20029;-81
2021/10/07 09:35:36;;;;;;;16.63;13.25;;;;;;;16.24;65.91;100986.69;6095102;23;20089;-82
2021/10/07 09:38:20;;;;;;;16.40;14.40;;;;;;;16.27;65.62;100989.19;6095777;23;20407;-81
2021/10/07 09:40:46;;;;;;;17.00;14.93;;;;;;;16.34;65.75;100985.19;6095940;23;20101;-82
2021/10/07 09:43:14;;;;;;;15.38;12.93;;;;;;;16.35;65.95;100978.94;6095530;23;20101;-81
2021/10/07 09:45:54;;;;;;;18.75;15.63;;;;;;;16.35;66.10;100994.88;6096088;23;20464;-81
2021/10/07 09:48:58;;;;;;;19.75;14.85;;;;;;;16.39;66.11;100996.41;6095598;23;20022;-81
2021/10/07 09:51:58;;;;;;;18.13;14.38;;;;;;;16.45;65.46;100995.13;6096197;23;20056;-80
2021/10/07 09:54:29;;;;;;;20.08;15.48;;;;;;;16.51;65.58;100991.25;6095615;23;20029;-80
2021/10/07 09:57:01;;;;;;;19.15;15.18;;;;;;;16.49;65.06;100999.31;6095898;23;20026;-80
2021/10/07 09:59:34;;;;;;;18.52;15.13;;;;;;;16.46;64.53;101002.19;6096263;23;20450;-80
2021/10/07 10:02:01;;;;;;;23.40;17.08;;;;;;;16.49;65.16;101001.13;6097836;23;20371;-80
2021/10/07 10:04:31;;;;;;;24.08;18.02;;;;;;;16.48;65.30;101002.09;6096308;23;20454;-80
2021/10/07 10:06:58;;;;;;;27.55;19.58;;;;;;;16.52;65.76;100996.47;6095823;23;20034;-80
2021/10/07 10:09:27;;;;;;;28.52;19.48;;;;;;;16.57;65.55;101003.31;6096205;23;20341;-80
2021/10/07 10:11:55;;;;;;;27.77;18.38;;;;;;;16.63;65.67;101009.09;6096173;23;20069;-80
2021/10/07 10:14:22;;;;;;;26.35;17.98;;;;;;;16.70;65.34;101008.72;6095425;23;20106;-80
2021/10/07 10:16:51;;;;;;;26.85;17.75;;;;;;;16.77;65.33;101015.34;6095702;23;20030;-80
2021/10/07 10:19:19;;;;;;;25.05;15.70;;;;;;;16.86;65.70;101019.25;6095692;23;20030;-80
2021/10/07 10:21:59;;;;;;;21.83;16.17;;;;;;;16.93;64.81;101016.09;6095993;23;20032;-80
2021/10/07 10:24:26;;;;;;;24.08;15.50;;;;;;;17.08;65.09;101013.41;6095852;23;20030;-80
2021/10/07 10:27:03;;;;;;;20.65;14.98;;;;;;;17.16;63.75;101016.44;6096068;23;20026;-80
2021/10/07 10:29:33;;;;;;;19.80;14.55;;;;;;;17.27;63.84;101021.06;6095793;23;20101;-80
2021/10/07 10:32:03;;;;;;;18.38;14.10;;;;;;;17.32;63.45;101016.28;6095836;23;20062;-80
2021/10/07 10:34:46;;;;;;;15.95;12.73;;;;;;;17.36;63.37;101016.09;6096202;23;20430;-80
2021/10/07 10:37:23;;;;;;;;;;;;;;;17.45;64.52;101020.81;6096956;23;20026;-80
2021/10/07 10:39:50;;;;;;;14.95;11.18;;;;;;;17.58;64.04;101016.38;6095960;23;20249;-80
2021/10/07 10:42:16;;;;;;;15.20;11.70;;;;;;;17.66;64.22;101017.69;6095498;23;20032;-80
2021/10/07 10:44:47;;;;;;;17.00;12.05;;;;;;;17.73;63.63;101012.78;6095780;23;20023;-80
2021/10/07 10:47:40;;;;;;;16.52;12.15;;;;;;;17.83;63.76;101019.22;6096361;23;20357;-80
2021/10/07 10:50:07;;;;;;;15.65;12.63;;;;;;;17.98;63.17;101023.50;6097492;23;20030;-80
2021/10/07 10:52:57;;;;;;;14.20;11.57;;;;;;;18.06;62.55;101030.94;6097212;23;20022;-80
2021/10/07 10:55:27;;;;;;;12.85;10.80;;;;;;;18.23;63.06;101023.66;6097096;23;20031;-80
2021/10/07 10:58:06;;;;;;;15.20;12.32;;;;;;;18.34;63.06;101028.22;6097573;23;20507;-80
2021/10/07 11:00:41;;;;;;;16.58;11.90;;;;;;;18.51;62.38;101035.06;6097360;23;20037;-80
2021/10/07 11:03:18;;;;;;;14.98;12.35;;;;;;;18.68;61.66;101038.31;6097460;23;20097;-80
2021/10/07 11:06:01;;;;;;;13.15;11.18;;;;;;;18.85;61.90;101040.69;6097363;23;20526;-80
2021/10/07 11:08:47;;;;;;;15.20;11.93;;;;;;;19.07;61.64;101036.50;6097245;23;20371;-80
2021/10/07 11:11:25;;;;;;;13.18;10.98;;;;;;;19.33;61.18;101043.53;6097808;23;20073;-80
2021/10/07 11:13:55;;;;;;;13.80;11.18;;;;;;;19.66;62.26;101045.50;6098630;23;20023;-80
2021/10/07 11:16:22;;;;;;;15.25;11.77;;;;;;;19.96;61.87;101045.13;6097588;23;20066;-80
2021/10/07 11:18:52;;;;;;;12.57;10.73;;;;;;;20.17;59.36;101051.53;6097169;23;20045;-80
2021/10/07 11:21:22;;;;;;;13.50;11.50;;;;;;;20.31;58.41;101046.94;6096988;23;20101;-80
2021/10/07 11:23:52;;;;;;;13.05;10.45;;;;;;;20.37;57.66;101050.97;6097170;23;20417;-80
2021/10/07 11:26:22;;;;;;;13.32;11.55;;;;;;;20.34;57.09;101046.69;6097018;23;20036;-80
2021/10/07 11:28:52;;;;;;;12.35;10.52;;;;;;;20.26;55.64;101051.78;6096821;23;20026;-80
2021/10/07 11:31:22;;;;;;;14.82;10.65;;;;;;;20.17;55.84;101056.00;6097216;23;20751;-80
2021/10/07 11:33:57;;;;;;;13.95;11.18;;;;;;;20.07;56.32;101052.34;6097294;23;20026;-80
2021/10/07 11:36:26;;;;;;;12.48;11.18;;;;;;;20.03;57.58;101055.25;6097056;23;20069;-80
2021/10/07 11:38:55;;;;;;;13.63;10.93;;;;;;;20.02;57.26;101045.53;6096883;23;20030;-80
2021/10/07 11:41:34;;;;;;;12.60;10.65;;;;;;;20.00;56.38;101057.31;6097176;23;20027;-80
2021/10/07 11:44:06;;;;;;;13.48;11.05;;;;;;;19.96;56.37;101058.50;6096638;23;20043;-80
2021/10/07 11:46:37;;;;;;;13.82;11.32;;;;;;;19.89;55.46;101058.09;6097526;23;20023;-80
2021/10/07 11:49:05;;;;;;;15.45;11.40;;;;;;;19.84;56.11;101061.13;6097266;23;20085;-80
2021/10/07 11:51:34;;;;;;;15.80;10.73;;;;;;;19.75;56.20;101052.00;6096779;23;20022;-80